Wetterdaten: Woche 12.04.04 - 18.04.04 (KW16)
Datum Zeit Temperatur Luftfeuchte Luftdruck Regenmenge Wind Richtung Taupunkt Windchill
12.04.2004 00:00 5.1 C 81 % 1020.4 hPa 0.0 l/m 0.3 km/h (0 Bft) N-NO 2.1 C 5.1 C
12.04.2004 01:00 4.4 C 84 % 1020.5 hPa 0.0 l/m 0.1 km/h (0 Bft) N 1.9 C 4.4 C
12.04.2004 02:00 4.1 C 84 % 1019.7 hPa 0.0 l/m 0.2 km/h (0 Bft) N-NO 1.7 C 4.1 C
12.04.2004 03:00 3.9 C 84 % 1019.6 hPa 0.0 l/m 0.1 km/h (0 Bft) NO 1.4 C 3.9 C
12.04.2004 04:00 4.1 C 81 % 1019.5 hPa 0.0 l/m 1.7 km/h (1 Bft) N-NO 1.1 C 3.9 C
12.04.2004 05:00 3.6 C 84 % 1019.6 hPa 0.0 l/m 0.4 km/h (0 Bft) N 1.0 C 3.5 C
12.04.2004 06:00 3.8 C 85 % 1019.6 hPa 0.0 l/m 0.2 km/h (0 Bft) N 1.5 C 3.8 C
12.04.2004 07:00 4.8 C 77 % 1020.5 hPa 0.0 l/m 1.3 km/h (1 Bft) O-NO 1.1 C 4.6 C
12.04.2004 08:00 5.4 C 75 % 1020.4 hPa 0.0 l/m 0.9 km/h (0 Bft) O-NO 1.4 C 5.3 C
12.04.2004 09:00 6.8 C 70 % 1020.2 hPa 0.0 l/m 5.2 km/h (1 Bft) O-NO 1.8 C 6.0 C
12.04.2004 10:00 8.7 C 63 % 1020.0 hPa 0.0 l/m 13.7 km/h (3 Bft) O-SO 2.0 C 6.8 C
12.04.2004 11:00 11.0 C 57 % 1019.6 hPa 0.0 l/m 19.3 km/h (3 Bft) O-SO 2.8 C 10.9 C
12.04.2004 12:00 12.6 C 45 % 1019.1 hPa 0.0 l/m 24.3 km/h (4 Bft) O 1.0 C 12.6 C
12.04.2004 13:00 12.0 C 39 % 1018.7 hPa 0.0 l/m 15.2 km/h (3 Bft) O-NO -1.5 C 12.0 C
12.04.2004 14:00 12.5 C 37 % 1018.4 hPa 0.0 l/m 13.2 km/h (3 Bft) NO -2.0 C 12.5 C
12.04.2004 15:00 13.0 C 37 % 1018.3 hPa 0.0 l/m 11.2 km/h (2 Bft) N-NO -1.4 C 13.0 C
12.04.2004 16:00 13.0 C 37 % 1018.3 hPa 0.0 l/m 11.0 km/h (2 Bft) O-NO -1.3 C 13.0 C
12.04.2004 17:00 12.8 C 36 % 1018.3 hPa 0.0 l/m 10.1 km/h (2 Bft) O-NO -1.9 C 12.8 C
12.04.2004 18:00 12.2 C 39 % 1018.4 hPa 0.0 l/m 7.0 km/h (2 Bft) O-SO -1.5 C 12.2 C
12.04.2004 19:00 11.3 C 39 % 1018.5 hPa 0.0 l/m 4.2 km/h (1 Bft) O -2.2 C 11.3 C
12.04.2004 20:00 9.1 C 43 % 1018.8 hPa 0.0 l/m 1.5 km/h (1 Bft) O-SO -2.9 C 8.9 C
12.04.2004 21:00 7.5 C 49 % 1019.0 hPa 0.0 l/m 0.1 km/h (0 Bft) O-SO -2.7 C 7.5 C
12.04.2004 22:00 4.8 C 63 % 1019.4 hPa 0.0 l/m 0.5 km/h (0 Bft) O-SO -1.7 C 4.8 C
12.04.2004 23:00 3.0 C 75 % 1019.7 hPa 0.0 l/m 0.0 km/h (0 Bft) N -1.0 C 3.0 C
13.04.2004 00:00 2.5 C 80 % 1019.8 hPa 0.0 l/m 0.8 km/h (0 Bft) O-SO -0.7 C 2.5 C
13.04.2004 01:00 2.4 C 78 % 1019.8 hPa 0.0 l/m 0.3 km/h (0 Bft) O-SO -1.1 C 2.4 C
13.04.2004 02:00 1.8 C 82 % 1019.4 hPa 0.0 l/m 0.0 km/h (0 Bft) N -0.9 C 1.8 C
13.04.2004 03:00 1.9 C 85 % 1018.8 hPa 0.0 l/m 0.0 km/h (0 Bft) N -0.4 C 1.9 C
13.04.2004 04:00 2.5 C 84 % 1018.7 hPa 0.0 l/m 0.0 km/h (0 Bft) N 0.1 C 2.5 C
13.04.2004 05:00 2.9 C 82 % 1018.7 hPa 0.0 l/m 0.0 km/h (0 Bft) N 0.2 C 2.9 C
13.04.2004 06:00 2.4 C 85 % 1018.7 hPa 0.0 l/m 0.0 km/h (0 Bft) N 0.1 C 2.4 C
13.04.2004 07:00 2.4 C 88 % 1018.7 hPa 0.0 l/m 0.0 km/h (0 Bft) N 0.6 C 2.4 C
13.04.2004 08:00 3.9 C 78 % 1019.0 hPa 0.0 l/m 0.3 km/h (0 Bft) NW 0.5 C 3.9 C
13.04.2004 09:00 6.0 C 69 % 1019.2 hPa 0.0 l/m 0.3 km/h (0 Bft) NW 0.7 C 6.0 C
13.04.2004 10:00 8.1 C 59 % 1019.0 hPa 0.0 l/m 0.5 km/h (0 Bft) NW 0.6 C 8.1 C
13.04.2004 11:00 10.6 C 48 % 1018.1 hPa 0.0 l/m 2.2 km/h (1 Bft) O-NO -0.0 C 10.6 C
13.04.2004 12:00 12.1 C 39 % 1017.4 hPa 0.0 l/m 10.4 km/h (2 Bft) O-SO -1.5 C 12.1 C
13.04.2004 13:00 12.0 C 39 % 1017.4 hPa 0.0 l/m 3.3 km/h (1 Bft) N-NO -1.6 C 12.0 C
13.04.2004 14:00 11.6 C 42 % 1017.4 hPa 0.0 l/m 1.7 km/h (1 Bft) O-SO -1.0 C 11.6 C
13.04.2004 15:00 11.1 C 43 % 1017.5 hPa 0.0 l/m 2.3 km/h (1 Bft) N-NO -1.1 C 11.1 C
13.04.2004 16:00 10.8 C 45 % 1017.5 hPa 0.0 l/m 2.6 km/h (1 Bft) O-SO -0.5 C 10.8 C
13.04.2004 17:00 9.5 C 58 % 1017.7 hPa 0.0 l/m 6.0 km/h (2 Bft) O-SO 1.7 C 8.8 C
13.04.2004 18:00 9.3 C 62 % 1018.3 hPa 0.0 l/m 0.4 km/h (0 Bft) O-SO 2.5 C 9.3 C
13.04.2004 19:00 9.1 C 59 % 1018.8 hPa 0.0 l/m 0.9 km/h (0 Bft) SO 1.5 C 9.0 C
13.04.2004 20:00 8.3 C 65 % 1018.9 hPa 0.0 l/m 0.0 km/h (0 Bft) N 2.0 C 8.3 C
13.04.2004 21:00 7.5 C 72 % 1019.3 hPa 0.0 l/m 0.0 km/h (0 Bft) N 2.7 C 7.5 C
13.04.2004 22:00 6.5 C 77 % 1020.2 hPa 0.0 l/m 0.0 km/h (0 Bft) N 2.7 C 6.5 C
13.04.2004 23:00 5.5 C 81 % 1020.4 hPa 0.0 l/m 0.0 km/h (0 Bft) N 2.4 C 5.5 C
14.04.2004 00:00 4.6 C 84 % 1020.5 hPa 0.0 l/m 0.0 km/h (0 Bft) N 2.1 C 4.6 C
14.04.2004 01:00 5.5 C 74 % 1020.4 hPa 0.0 l/m 0.1 km/h (0 Bft) N 1.2 C 5.5 C
14.04.2004 02:00 5.4 C 69 % 1020.4 hPa 0.0 l/m 0.4 km/h (0 Bft) O-SO 0.2 C 5.3 C
14.04.2004 03:00 3.9 C 78 % 1020.6 hPa 0.0 l/m 0.0 km/h (0 Bft) N 0.4 C 3.9 C
14.04.2004 04:00 3.0 C 84 % 1020.7 hPa 0.0 l/m 0.0 km/h (0 Bft) N 0.6 C 3.0 C
14.04.2004 05:00 2.2 C 85 % 1020.9 hPa 0.0 l/m 2.7 km/h (1 Bft) O-SO -0.1 C 1.4 C
14.04.2004 06:00 1.4 C 89 % 1021.0 hPa 0.0 l/m 0.5 km/h (0 Bft) O-SO -0.3 C 1.4 C
14.04.2004 07:00 1.6 C 92 % 1020.9 hPa 0.0 l/m 0.1 km/h (0 Bft) N 0.4 C 1.6 C
14.04.2004 08:00 3.6 C 85 % 1020.6 hPa 0.0 l/m 0.0 km/h (0 Bft) N 1.4 C 3.6 C
14.04.2004 09:00 6.9 C 69 % 1020.2 hPa 0.0 l/m 0.5 km/h (0 Bft) W-NW 1.6 C 6.8 C
14.04.2004 10:00 10.1 C 58 % 1019.7 hPa 0.0 l/m 10.3 km/h (2 Bft) O-SO 2.2 C 9.8 C
14.04.2004 11:00 11.9 C 48 % 1019.5 hPa 0.0 l/m 11.7 km/h (2 Bft) O-SO 1.3 C 11.9 C
14.04.2004 12:00 14.1 C 41 % 1018.8 hPa 0.0 l/m 25.6 km/h (4 Bft) O-SO 1.0 C 14.1 C
14.04.2004 13:00 15.6 C 34 % 1017.9 hPa 0.0 l/m 18.1 km/h (3 Bft) O-SO -0.2 C 15.6 C
14.04.2004 14:00 15.2 C 33 % 1018.0 hPa 0.0 l/m 12.7 km/h (3 Bft) O-SO -1.0 C 15.2 C
14.04.2004 15:00 15.7 C 33 % 1017.9 hPa 0.0 l/m 11.0 km/h (2 Bft) O-SO -0.5 C 15.7 C
14.04.2004 16:00 16.0 C 32 % 1016.8 hPa 0.0 l/m 15.1 km/h (3 Bft) O-SO -0.8 C 16.0 C
14.04.2004 17:00 15.0 C 35 % 1017.0 hPa 0.0 l/m 9.2 km/h (2 Bft) O-SO -0.2 C 15.0 C
14.04.2004 18:00 14.2 C 38 % 1017.1 hPa 0.0 l/m 3.4 km/h (1 Bft) O-NO 0.3 C 14.2 C
14.04.2004 19:00 12.4 C 44 % 1017.3 hPa 0.0 l/m 0.2 km/h (0 Bft) NO 0.4 C 12.4 C
14.04.2004 20:00 10.7 C 49 % 1017.7 hPa 0.0 l/m 0.1 km/h (0 Bft) N 0.4 C 10.7 C
14.04.2004 21:00 8.0 C 63 % 1019.0 hPa 0.0 l/m 0.0 km/h (0 Bft) N 1.3 C 8.0 C
14.04.2004 22:00 6.0 C 73 % 1019.3 hPa 0.0 l/m 0.2 km/h (0 Bft) O-SO 1.6 C 6.0 C
14.04.2004 23:00 5.2 C 77 % 1019.4 hPa 0.0 l/m 0.1 km/h (0 Bft) N 1.5 C 5.2 C
15.04.2004 00:00 4.3 C 81 % 1019.6 hPa 0.0 l/m 1.3 km/h (1 Bft) O-SO 1.3 C 4.1 C
15.04.2004 01:00 3.3 C 87 % 1020.5 hPa 0.0 l/m 0.7 km/h (0 Bft) O-SO 1.3 C 3.2 C
15.04.2004 02:00 2.5 C 91 % 1020.8 hPa 0.0 l/m 1.3 km/h (1 Bft) O-SO 1.1 C 2.4 C
15.04.2004 03:00 2.0 C 93 % 1020.9 hPa 0.0 l/m 0.6 km/h (0 Bft) O-SO 1.0 C 1.9 C
15.04.2004 04:00 1.3 C 97 % 1021.0 hPa 0.0 l/m 2.0 km/h (1 Bft) O-SO 0.9 C 0.9 C
15.04.2004 05:00 1.4 C 99 % 1021.8 hPa 0.0 l/m 2.3 km/h (1 Bft) O-SO 1.2 C 1.0 C
15.04.2004 06:00 1.1 C 98 % 1022.0 hPa 0.0 l/m 0.0 km/h (0 Bft) N 0.9 C 1.1 C
15.04.2004 07:00 1.8 C 97 % 1022.2 hPa 0.0 l/m 0.3 km/h (0 Bft) O-SO 1.4 C 1.8 C
15.04.2004 08:00 3.5 C 88 % 1022.7 hPa 0.0 l/m 0.0 km/h (0 Bft) N 1.7 C 3.5 C
15.04.2004 09:00 5.4 C 78 % 1022.5 hPa 0.0 l/m 0.1 km/h (0 Bft) N 1.8 C 5.4 C
15.04.2004 10:00 10.2 C 65 % 1021.8 hPa 0.0 l/m 6.3 km/h (2 Bft) SO 3.9 C 9.8 C
15.04.2004 11:00 13.4 C 51 % 1021.1 hPa 0.0 l/m 6.5 km/h (2 Bft) SO 3.4 C 13.4 C
15.04.2004 12:00 15.5 C 44 % 1020.0 hPa 0.0 l/m 3.5 km/h (1 Bft) O-SO 3.3 C 15.5 C
15.04.2004 13:00 17.3 C 35 % 1019.1 hPa 0.0 l/m 4.5 km/h (1 Bft) O-SO 1.6 C 17.3 C
15.04.2004 14:00 18.4 C 30 % 1018.3 hPa 0.0 l/m 5.0 km/h (1 Bft) O-SO 0.7 C 18.4 C
15.04.2004 15:00 18.2 C 30 % 1017.6 hPa 0.0 l/m 4.8 km/h (1 Bft) NW 0.4 C 18.2 C
15.04.2004 16:00 19.3 C 26 % 1017.4 hPa 0.0 l/m 1.2 km/h (1 Bft) W-NW -0.5 C 19.3 C
15.04.2004 17:00 18.2 C 31 % 1016.9 hPa 0.0 l/m 1.8 km/h (1 Bft) O-SO 0.7 C 18.2 C
15.04.2004 18:00 17.1 C 34 % 1017.0 hPa 0.0 l/m 2.0 km/h (1 Bft) O-SO 1.2 C 17.1 C
15.04.2004 19:00 15.7 C 38 % 1016.9 hPa 0.0 l/m 2.3 km/h (1 Bft) W-NW 1.5 C 15.7 C
15.04.2004 20:00 13.5 C 48 % 1017.2 hPa 0.0 l/m 0.4 km/h (0 Bft) NW 2.6 C 13.5 C
15.04.2004 21:00 11.2 C 61 % 1018.4 hPa 0.0 l/m 1.2 km/h (1 Bft) O-SO 3.9 C 11.2 C
15.04.2004 22:00 9.0 C 71 % 1018.8 hPa 0.0 l/m 0.8 km/h (0 Bft) O-SO 3.9 C 9.0 C
15.04.2004 23:00 7.6 C 78 % 1019.0 hPa 0.0 l/m 0.7 km/h (0 Bft) O-SO 4.0 C 7.5 C
16.04.2004 00:00 6.6 C 81 % 1019.2 hPa 0.0 l/m 2.1 km/h (1 Bft) O-SO 3.6 C 6.4 C
16.04.2004 01:00 5.8 C 84 % 1019.3 hPa 0.0 l/m 1.4 km/h (1 Bft) O-SO 3.2 C 5.6 C
16.04.2004 02:00 4.6 C 91 % 1019.5 hPa 0.0 l/m 5.1 km/h (1 Bft) O-SO 3.2 C 3.4 C
16.04.2004 03:00 3.7 C 97 % 1019.6 hPa 0.0 l/m 3.0 km/h (1 Bft) O-SO 3.2 C 3.1 C
16.04.2004 04:00 3.2 C 98 % 1019.7 hPa 0.0 l/m 1.9 km/h (1 Bft) O-SO 3.0 C 2.8 C
16.04.2004 05:00 2.4 C 99 % 1019.8 hPa 0.0 l/m 0.4 km/h (0 Bft) O-SO 2.3 C 2.4 C
16.04.2004 06:00 1.9 C 100 % 1019.4 hPa 0.0 l/m 0.5 km/h (0 Bft) O-SO 1.9 C 1.8 C
16.04.2004 07:00 2.3 C 100 % 1019.5 hPa 0.0 l/m 0.7 km/h (0 Bft) O-SO 2.3 C 2.3 C
16.04.2004 08:00 4.4 C 94 % 1019.5 hPa 0.0 l/m 0.0 km/h (0 Bft) N 3.5 C 4.4 C
16.04.2004 09:00 7.0 C 80 % 1018.2 hPa 0.0 l/m 0.5 km/h (0 Bft) W 3.7 C 6.9 C
16.04.2004 10:00 10.4 C 65 % 1016.6 hPa 0.0 l/m 1.9 km/h (1 Bft) W-NW 4.1 C 10.4 C
16.04.2004 11:00 15.2 C 49 % 1014.6 hPa 0.0 l/m 15.6 km/h (3 Bft) O-SO 4.6 C 15.2 C
16.04.2004 12:00 17.6 C 40 % 1013.2 hPa 0.0 l/m 20.5 km/h (4 Bft) O-SO 3.8 C 17.6 C
16.04.2004 13:00 19.1 C 32 % 1011.6 hPa 0.0 l/m 23.7 km/h (4 Bft) O-SO 2.2 C 19.1 C
16.04.2004 14:00 19.7 C 30 % 1010.2 hPa 0.0 l/m 21.0 km/h (4 Bft) O-SO 1.4 C 19.7 C
16.04.2004 15:00 19.9 C 26 % 1009.0 hPa 0.0 l/m 25.1 km/h (4 Bft) O-SO -0.1 C 19.9 C
16.04.2004 16:00 20.3 C 26 % 1007.8 hPa 0.0 l/m 19.5 km/h (3 Bft) O-SO 0.2 C 20.3 C
16.04.2004 17:00 20.2 C 26 % 1006.9 hPa 0.0 l/m 19.6 km/h (3 Bft) O-SO 0.2 C 20.2 C
16.04.2004 18:00 19.6 C 26 % 1006.0 hPa 0.0 l/m 8.4 km/h (2 Bft) O-SO -0.2 C 19.6 C
16.04.2004 19:00 18.2 C 29 % 1006.2 hPa 0.0 l/m 3.4 km/h (1 Bft) O-SO -0.1 C 18.2 C
16.04.2004 20:00 14.7 C 41 % 1006.6 hPa 0.0 l/m 3.9 km/h (1 Bft) O-SO 1.5 C 14.7 C
16.04.2004 21:00 12.1 C 51 % 1007.0 hPa 0.0 l/m 2.8 km/h (1 Bft) O-SO 2.2 C 12.1 C
16.04.2004 22:00 9.9 C 61 % 1007.3 hPa 0.0 l/m 2.6 km/h (1 Bft) O-SO 2.6 C 9.7 C
16.04.2004 23:00 8.2 C 68 % 1007.5 hPa 0.0 l/m 6.0 km/h (2 Bft) O-SO 2.6 C 7.3 C
17.04.2004 00:00 7.3 C 74 % 1007.6 hPa 0.0 l/m 3.4 km/h (1 Bft) O-SO 2.9 C 6.8 C
17.04.2004 01:00 5.8 C 80 % 1007.8 hPa 0.0 l/m 1.4 km/h (1 Bft) O-SO 2.7 C 5.8 C
17.04.2004 02:00 5.1 C 84 % 1008.0 hPa 0.0 l/m 2.2 km/h (1 Bft) O-SO 2.6 C 4.8 C
17.04.2004 03:00 4.4 C 89 % 1008.0 hPa 0.0 l/m 2.1 km/h (1 Bft) O-SO 2.7 C 4.1 C
17.04.2004 04:00 3.8 C 90 % 1008.1 hPa 0.0 l/m 1.8 km/h (1 Bft) O-SO 2.3 C 3.4 C
17.04.2004 05:00 3.3 C 95 % 1008.2 hPa 0.0 l/m 4.3 km/h (1 Bft) O-SO 2.6 C 2.4 C
17.04.2004 06:00 2.9 C 97 % 1008.4 hPa 0.0 l/m 1.4 km/h (1 Bft) O-SO 2.5 C 2.6 C
17.04.2004 07:00 3.6 C 95 % 1008.6 hPa 0.0 l/m 0.7 km/h (0 Bft) O-SO 2.9 C 3.6 C
17.04.2004 08:00 6.3 C 82 % 1008.8 hPa 0.0 l/m 0.1 km/h (0 Bft) SO 3.5 C 6.3 C
17.04.2004 09:00 9.8 C 67 % 1007.4 hPa 0.0 l/m 1.0 km/h (0 Bft) SO 4.0 C 9.8 C
17.04.2004 10:00 13.6 C 51 % 1006.8 hPa 0.0 l/m 14.2 km/h (3 Bft) W-NW 3.6 C 13.6 C
17.04.2004 11:00 15.1 C 47 % 1006.6 hPa 0.0 l/m 23.7 km/h (4 Bft) NW 3.9 C 15.1 C
17.04.2004 12:00 16.2 C 46 % 1005.5 hPa 0.0 l/m 18.6 km/h (3 Bft) NW 4.7 C 16.2 C
17.04.2004 13:00 16.1 C 46 % 1005.4 hPa 0.0 l/m 13.5 km/h (3 Bft) NW 4.6 C 16.1 C
17.04.2004 14:00 16.9 C 45 % 1004.8 hPa 0.0 l/m 24.8 km/h (4 Bft) NW 4.9 C 16.9 C
17.04.2004 15:00 17.8 C 43 % 1004.1 hPa 0.0 l/m 21.9 km/h (4 Bft) NW 5.0 C 17.8 C
17.04.2004 16:00 17.6 C 44 % 1003.5 hPa 0.0 l/m 20.1 km/h (4 Bft) W-NW 5.3 C 17.6 C
17.04.2004 17:00 17.7 C 46 % 1003.1 hPa 0.0 l/m 7.8 km/h (2 Bft) W-NW 5.9 C 17.7 C
17.04.2004 18:00 17.2 C 45 % 1003.2 hPa 0.0 l/m 8.6 km/h (2 Bft) W-NW 5.1 C 17.2 C
17.04.2004 19:00 16.1 C 47 % 1003.3 hPa 0.0 l/m 12.1 km/h (2 Bft) NW 4.9 C 16.1 C
17.04.2004 20:00 13.6 C 60 % 1003.9 hPa 0.0 l/m 26.7 km/h (4 Bft) NW 6.0 C 13.6 C
17.04.2004 21:00 12.4 C 68 % 1004.9 hPa 0.0 l/m 25.3 km/h (4 Bft) NW 6.7 C 12.4 C
17.04.2004 22:00 12.0 C 73 % 1004.9 hPa 0.0 l/m 23.0 km/h (4 Bft) NW 7.3 C 12.0 C
17.04.2004 23:00 11.1 C 85 % 1005.0 hPa 0.0 l/m 13.2 km/h (3 Bft) NW 8.6 C 11.1 C
18.04.2004 00:00 10.4 C 90 % 1004.4 hPa 0.0 l/m 1.1 km/h (0 Bft) W-NW 8.8 C 10.4 C
18.04.2004 01:00 10.4 C 90 % 1004.1 hPa 0.3 l/m 1.5 km/h (1 Bft) W-SW 8.9 C 10.4 C
18.04.2004 02:00 9.8 C 95 % 1003.9 hPa 0.0 l/m 7.1 km/h (2 Bft) NW 9.0 C 8.9 C
18.04.2004 03:00 9.1 C 95 % 1003.2 hPa 0.3 l/m 13.6 km/h (3 Bft) NW 8.4 C 7.1 C
18.04.2004 04:00 8.7 C 87 % 1003.3 hPa 0.0 l/m 5.0 km/h (1 Bft) NW 6.7 C 8.0 C
18.04.2004 05:00 8.6 C 87 % 1002.5 hPa 0.0 l/m 2.0 km/h (1 Bft) W-NW 6.5 C 8.4 C
18.04.2004 06:00 8.4 C 82 % 1002.3 hPa 0.0 l/m 6.1 km/h (2 Bft) W-NW 5.5 C 7.5 C
18.04.2004 07:00 8.5 C 79 % 1001.5 hPa 0.0 l/m 0.3 km/h (0 Bft) NW 5.1 C 8.5 C
18.04.2004 08:00 9.0 C 79 % 1000.7 hPa 0.0 l/m 0.2 km/h (0 Bft) SO 5.6 C 9.0 C
18.04.2004 09:00 9.9 C 73 % 999.8 hPa 0.0 l/m 0.4 km/h (0 Bft) SO 5.2 C 9.9 C
18.04.2004 10:00 10.8 C 67 % 998.8 hPa 0.0 l/m 1.4 km/h (1 Bft) SO 4.8 C 10.8 C
18.04.2004 11:00 13.1 C 60 % 998.1 hPa 0.0 l/m 7.4 km/h (2 Bft) SO 5.5 C 13.1 C
18.04.2004 12:00 15.2 C 54 % 996.7 hPa 0.0 l/m 9.7 km/h (2 Bft) SO 6.0 C 15.2 C
18.04.2004 13:00 16.4 C 49 % 995.5 hPa 0.0 l/m 6.4 km/h (2 Bft) SO 5.6 C 16.4 C
18.04.2004 14:00 18.2 C 43 % 994.6 hPa 0.0 l/m 8.5 km/h (2 Bft) SO 5.3 C 18.2 C
18.04.2004 15:00 19.3 C 42 % 993.2 hPa 0.0 l/m 11.7 km/h (2 Bft) SO 6.0 C 19.3 C
18.04.2004 16:00 19.4 C 39 % 992.5 hPa 0.0 l/m 9.6 km/h (2 Bft) W-SW 5.1 C 19.4 C
18.04.2004 17:00 17.2 C 41 % 992.8 hPa 0.0 l/m 7.1 km/h (2 Bft) W 3.8 C 17.2 C
18.04.2004 18:00 15.4 C 46 % 993.0 hPa 0.0 l/m 8.3 km/h (2 Bft) W-NW 3.5 C 15.4 C
18.04.2004 19:00 12.2 C 76 % 994.1 hPa 0.3 l/m 4.1 km/h (1 Bft) NW 7.9 C 12.2 C
18.04.2004 20:00 10.5 C 90 % 995.7 hPa 1.3 l/m 0.2 km/h (0 Bft) W-NW 9.0 C 10.5 C
18.04.2004 21:00 9.9 C 97 % 995.8 hPa 1.3 l/m 0.0 km/h (0 Bft) S-SO 9.4 C 9.9 C
18.04.2004 22:00 7.9 C 96 % 997.0 hPa 0.7 l/m 30.4 km/h (5 Bft) NW 7.4 C 4.0 C
18.04.2004 23:00 7.6 C 95 % 997.4 hPa 0.0 l/m 14.4 km/h (3 Bft) NW 6.8 C 5.2 C
Min-Datum _ 15.04.04 15.04.04 18.04.04 - 12.04.04 - 12.04.04 15.04.04
_ Min-Zeit 06:45 16:03 16:42 - 00:21 - 21:24 04:24
Minimum _ 0.5 C 25 % 992.4 hPa - 0.0 km/h (0 Bft) - -3.9 C -2.6 C
Max-Datum _ 16.04.04 15.04.04 15.04.04 18.04.04 18.04.04 - 18.04.04 16.04.04
_ Max-Zeit 17:27 07:09 07:48 19:00 22:03 - 21:21 17:27
Maximum _ 20.5 C 100 % 1022.9 hPa 1.3 l/m 50.0 km/h
NW (6 Bft)
- 9.5 C 20.5 C
Durchschnitt _ 9.6 C 65 % 1013.6 hPa #4.4 l/m 5.7 km/h (1 Bft) O-SO 2.3 C 9.4 C

Durchschnitt Minimum Temp.8.6 C
Durchschnitt Maximum Temp.10.6 C
© Kaiko 2004